Météo des aéroports (METAR) proches de Ticheville

 

LFRG - St Gatien, France
Distance from station: N 52km
Mise à jour: 23/09/2017 21:30
clair
clair
 Wind from SE
Vent: SE 6 km/h
Température: 11°C
Point de rosée: 9°C
Humidité: 88%
Baromètre: 1020 hPa
Résumé: clair
Visibility: greater than 10 km
2017/09/23 19:30 LFRG 231930Z AUTO 14003KT CAVOK 11/09 Q1020 NOSIG
LFRK - Caen/Carpiquet(A, France
Distance from station: ONO 60km
Mise à jour: 23/09/2017 22:00
clair
clair
 Wind from ESE
Vent: ESE 11 km/h
Température: 12°C
Point de rosée: 8°C
Humidité: 77%
Baromètre: 1019 hPa
Résumé: clair
Visibility: greater than 10 km
2017/09/23 20:00 LFRK 232000Z AUTO 12006KT CAVOK 12/08 Q1019 NOSIG
 
LFOH - Le Havre/Octevil, France
Distance from station: NNO 69km
Mise à jour: 23/09/2017 22:00
clair
clair
 Wind from E
Vent: E 9 km/h
Température: 15°C
Point de rosée: 10°C
Humidité: 72%
Baromètre: 1020 hPa
Résumé: clair
Visibility: greater than 10 km
2017/09/23 20:00 LFOH 232000Z AUTO 09005KT CAVOK 15/10 Q1020
LFOE - Evreux/Fauville, France
Distance from station: E 70km
Mise à jour: 23/09/2017 22:00
clair
clair
 Wind from E
Vent: E 6 km/h
Température: 15°C
Point de rosée: 9°C
Humidité: 68%
Baromètre: 1021 hPa
Résumé: clair
Visibility: greater than 10 km
2017/09/23 20:00 LFOE 232000Z AUTO 08003KT CAVOK 15/09 Q1021
 
LFOP - Rouen/Boos (aut), France
Distance from station: NE 83km
Mise à jour: 23/09/2017 22:00
clair
clair
 Wind from E
Vent: E 11 km/h
Température: 13°C
Point de rosée: 9°C
Humidité: 77%
Baromètre: 1021 hPa
Résumé: clair
Visibility: greater than 10 km
2017/09/23 20:00 LFOP 232000Z AUTO 09006KT CAVOK 13/09 Q1021 NOSIG
LFRM - Le Mans/Arnage(A, France
Distance from station: S 107km
Mise à jour: 23/09/2017 22:00
clair
clair
 Wind from E
Vent: E 6 km/h
Température: 16°C
Point de rosée: 12°C
Humidité: 77%
Baromètre: 1019 hPa
Résumé: clair
Visibility: greater than 10 km
2017/09/23 20:00 LFRM 232000Z AUTO 08003KT CAVOK 16/12 Q1019 NOSIG